Aérodrome :
LOGIN :

S'inscrire | Disclaimer

   EN    FR    IT 

 










Légende :    VFR   VFR Marginal   IFR   IFR Intensif   IFR Très Intensif
Visi : 
Plafond : 
>= 8 km
>= 3000ft
5 à 8 km
1000 à 3000 ft
1500m à 5 km
500 à 1000 ft
800 à 1500m
200 à 500 ft
< 800m
< 200 ft
Symboles :   Orages  Brouillard  Fortes neiges  Fortes précipitations  Vent > 20 kt
SIGMETs :   Divers  Orages  Givrage  Turbulence  Onde Orograph.  Cendres Volcan.







- Altitude de l'aérodrome : 13 ft
- Code IATA : CEQ
- Voir les cartes d'approche


LFMD - Cannes Mandelieu

DERNIER METAR :
  • 240000Z AUTO VRB02KT CAVOK 26/19 Q1010

METARs EXPIRÉS :
  • 232330Z AUTO 09005KT 020V190 CAVOK 27/19 Q1010
  • 232300Z AUTO 36004KT 300V060 CAVOK 25/22 Q1011
  • 232230Z AUTO 15004KT 100V190 CAVOK 25/22 Q1012
  • 232200Z AUTO 21004KT 180V250 CAVOK 25/22 Q1012

TAF TAF LFMD
Valide du 23 à 15h jusqu'au 24 à 15h UTC


231400Z 2315/2415 20015G30KT CAVOK
BECMG 2317/2319 VRB05KT
PROB30
TEMPO 2322/2401 SHRA FEW070TCU
BECMG 2406/2408 26015G30KT
ATIS : +33 4 93 48 73 23
Pas de NOTAMs connus pour ce terrain.



MET'MAP, la Météo Aéronautique d'un coup d'oeil ! - Copyright ORBIFLY Décembre 2007 - Disclaimer

ORBIFLY MET'MAP TEAM :

Programmation & Développement : Alexandra Zaïnal
Conception & Développement : Baudouin d'Aumeries
Co-Programmation & Développement : Marc-Olivier Méhu
Soutien technique & logistique : Manuel Goepfert

Contact : metmap@orbifly.com




SOURCES & CREDITS :

   NOAA